Time;durP1;ratioP1;P1;durP2;ratioP2;P2;SDS_P1;SDS_P2;PMS_P1;PMS_P2;Temp;Humidity;BMP_temperature;BMP_pressure;BME280_temperature;BME280_humidity;BME280_pressure;Samples;Min_cycle;Max_cycle;Signal;HPM_P1;HPM_P2
2022/10/31 00:00:25;;;;;;;;;;;;;;;11.59;100.00;101068.97;5550742;32;35249;-71
2022/10/31 00:03:30;;;;;;;;;;;;;;;11.70;100.00;101066.88;5550792;32;34565;-71
2022/10/31 00:06:35;;;;;;;;;;;;;;;11.63;100.00;101062.34;5537018;32;36426;-71
2022/10/31 00:09:40;;;;;;;;;;;;;;;11.64;100.00;101062.19;5536941;32;34636;-71
2022/10/31 00:12:42;;;;;;;;;;;;;;;11.66;100.00;101065.53;5536753;32;34537;-71
2022/10/31 00:15:51;;;;;;;;;;;;;;;11.66;100.00;101064.69;5536742;32;34193;-71
2022/10/31 00:19:00;;;;;;;;;;;;;;;11.66;100.00;101059.38;5536765;32;35610;-71
2022/10/31 00:22:07;;;;;;;;;;;;;;;11.71;100.00;101051.78;5550334;32;34635;-71
2022/10/31 00:25:13;;;;;;;;;;;;;;;11.67;100.00;101061.03;5550739;32;34679;-70
2022/10/31 00:28:19;;;;;;;;;;;;;;;11.52;100.00;101062.62;5550256;32;35121;-71
2022/10/31 00:31:26;;;;;;;;;;;;;;;11.51;100.00;101060.97;5534927;32;34499;-71
2022/10/31 00:34:35;;;;;;;;;;;;;;;11.59;100.00;101059.16;5550343;32;34535;-71
2022/10/31 00:37:42;;;;;;;;;;;;;;;11.57;100.00;101065.66;5550181;32;35018;-70
2022/10/31 00:40:51;;;;;;;;;;;;;;;11.55;100.00;101057.00;5536024;32;34783;-71
2022/10/31 00:43:58;;;;;;;;;;;;;;;11.46;100.00;101056.12;5550166;32;35203;-71
2022/10/31 00:47:05;;;;;;;;;;;;;;;11.48;100.00;101051.47;5549860;32;34463;-70
2022/10/31 00:50:13;;;;;;;;;;;;;;;11.47;100.00;101056.94;5549945;32;34420;-71
2022/10/31 00:53:22;;;;;;;;;;;;;;;11.39;100.00;101049.75;5536174;32;35703;-70
2022/10/31 00:56:28;;;;;;;;;;;;;;;11.34;100.00;101044.06;5549953;32;35117;-71
2022/10/31 00:59:35;;;;;;;;;;;;;;;11.29;100.00;101044.53;5535979;32;34849;-71
2022/10/31 01:02:41;;;;;;;;;;;;;;;11.34;100.00;101044.06;5536090;32;35426;-71
2022/10/31 01:06:16;;;;;;;;;;;;;;;11.36;100.00;101051.88;5549643;32;34513;-71
2022/10/31 01:09:24;;;;;;;;;;;;;;;11.34;100.00;101050.22;5549632;32;34941;-71
2022/10/31 01:12:45;;;;;;;;;;;;;;;11.37;100.00;101043.78;5549666;32;35143;-71
2022/10/31 01:15:55;;;;;;;;;;;;;;;11.30;100.00;101046.22;5536347;32;34522;-71
2022/10/31 01:19:02;;;;;;;;;;;;;;;11.24;100.00;101041.50;5549496;32;34577;-71
2022/10/31 01:22:09;;;;;;;;;;;;;;;11.33;100.00;101034.44;5549344;32;34818;-71
2022/10/31 01:25:17;;;;;;;;;;;;;;;11.33;100.00;101037.09;5549442;32;34577;-70
2022/10/31 01:28:23;;;;;;;;;;;;;;;11.32;100.00;101036.28;5549171;32;34577;-71
2022/10/31 01:31:34;;;;;;;;;;;;;;;11.25;100.00;101032.56;5549243;32;34611;-71
2022/10/31 01:34:42;;;;;;;;;;;;;;;11.25;100.00;101037.88;5536616;32;35031;-70
2022/10/31 01:37:51;;;;;;;;;;;;;;;11.39;100.00;101025.00;5536217;32;34298;-70
2022/10/31 01:40:58;;;;;;;;;;;;;;;11.40;100.00;101030.16;5535448;32;35719;-70
2022/10/31 01:44:16;;;;;;;;;;;;;;;11.34;100.00;101022.81;5537645;32;35054;-70
2022/10/31 01:47:41;;;;;;;;;;;;;;;11.22;100.00;101019.63;5551779;32;34439;-70
2022/10/31 01:50:50;;;;;;;;;;;;;;;11.20;100.00;101024.22;5551850;32;35160;-70
2022/10/31 01:54:00;;;;;;;;;;;;;;;11.14;100.00;101024.84;5551695;32;34994;-70
2022/10/31 01:57:10;;;;;;;;;;;;;;;11.14;100.00;101021.34;5551705;32;34604;-70
2022/10/31 02:00:17;;;;;;;;;;;;;;;11.09;100.00;101018.31;5551820;32;34878;-70
2022/10/31 02:03:25;;;;;;;;;;;;;;;11.08;100.00;101020.19;5551711;32;35194;-70
2022/10/31 02:06:36;;;;;;;;;;;;;;;10.99;100.00;101029.06;5551647;32;34997;-70
2022/10/31 02:09:43;;;;;;;;;;;;;;;11.02;100.00;101025.28;5551798;32;34590;-70
2022/10/31 02:12:53;;;;;;;;;;;;;;;11.09;100.00;101020.97;5551679;32;34589;-70
2022/10/31 02:16:02;;;;;;;;;;;;;;;11.12;100.00;101018.88;5551939;32;34587;-70
2022/10/31 02:19:12;;;;;;;;;;;;;;;11.06;100.00;101022.16;5551627;32;34677;-70
2022/10/31 02:22:25;;;;;;;;;;;;;;;11.09;100.00;101011.19;5551394;32;34554;-70
2022/10/31 02:25:51;;;;;;;;;;;;;;;11.12;100.00;101010.06;5537491;32;35395;-70
2022/10/31 02:29:03;;;;;;;;;;;;;;;11.09;100.00;101013.03;5551344;32;35193;-70
2022/10/31 02:32:13;;;;;;;;;;;;;;;11.15;100.00;101007.09;5551422;32;35251;-71
2022/10/31 02:35:35;;;;;;;;;;;;;;;11.10;100.00;101017.34;5551639;32;35202;-71
2022/10/31 02:39:03;;;;;;;;;;;;;;;10.94;100.00;101015.41;5551368;32;34502;-71
2022/10/31 02:42:16;;;;;;;;;;;;;;;10.96;100.00;101017.91;5551427;32;34593;-71
2022/10/31 02:45:29;;;;;;;;;;;;;;;11.04;100.00;101021.44;5551429;32;35139;-71
2022/10/31 02:48:39;;;;;;;;;;;;;;;10.98;100.00;101026.56;5551338;32;34887;-71
2022/10/31 02:51:48;;;;;;;;;;;;;;;10.92;100.00;101030.66;5537366;32;33890;-71
2022/10/31 02:54:54;;;;;;;;;;;;;;;10.82;100.00;101030.75;5550732;32;34580;-71
2022/10/31 02:58:07;;;;;;;;;;;;;;;10.82;100.00;101027.25;5551257;32;34499;-71
2022/10/31 03:01:34;;;;;;;;;;;;;;;10.87;100.00;101028.47;5551300;32;34975;-71
2022/10/31 03:05:06;;;;;;;;;;;;;;;10.89;100.00;101033.66;5551336;32;34693;-71
2022/10/31 03:08:23;;;;;;;;;;;;;;;11.00;100.00;101037.84;5530922;32;34927;-71
2022/10/31 03:11:40;;;;;;;;;;;;;;;10.99;100.00;101036.22;5551199;32;34353;-71
2022/10/31 03:14:56;;;;;;;;;;;;;;;10.99;100.00;101036.22;5551213;32;35084;-71
2022/10/31 03:18:02;;;;;;;;;;;;;;;11.15;100.00;101044.28;5551106;32;34944;-71
2022/10/31 03:21:11;;;;;;;;;;;;;;;11.14;100.00;101045.25;5536864;32;35272;-71
2022/10/31 03:24:18;;;;;;;;;;;;;;;11.09;100.00;101056.34;5551080;32;34327;-71
2022/10/31 03:27:26;;;;;;;;;;;;;;;11.17;100.00;101047.63;5551377;32;34493;-71
2022/10/31 03:30:36;;;;;;;;;;;;;;;11.01;100.00;101050.13;5550965;32;35014;-71
2022/10/31 03:33:46;;;;;;;;;;;;;;;11.01;100.00;101047.50;5550990;32;35196;-71
2022/10/31 03:36:55;;;;;;;;;;;;;;;11.06;100.00;101048.69;5537702;32;34534;-71
2022/10/31 03:40:05;;;;;;;;;;;;;;;10.86;100.00;101058.66;5550944;32;34605;-70
2022/10/31 03:43:12;;;;;;;;;;;;;;;10.90;100.00;101054.72;5537668;32;34767;-70
2022/10/31 03:46:20;;;;;;;;;;;;;;;10.89;100.00;101055.69;5550868;32;34507;-70
2022/10/31 03:49:27;;;;;;;;;;;;;;;10.76;100.00;101055.25;5550778;32;34615;-70
2022/10/31 03:52:37;;;;;;;;;;;;;;;10.79;100.00;101062.94;5551166;32;34508;-71
2022/10/31 03:55:55;;;;;;;;;;;;;;;10.95;100.00;101054.25;5536556;32;35237;-70
2022/10/31 03:59:04;;;;;;;;;;;;;;;10.94;100.00;101055.22;5550760;32;34814;-71
2022/10/31 04:02:16;;;;;;;;;;;;;;;11.02;100.00;101065.09;5550676;32;34580;-70
2022/10/31 04:05:22;;;;;;;;;;;;;;;10.98;100.00;101058.44;5550416;32;34527;-71
2022/10/31 04:08:36;;;;;;;;;;;;;;;10.92;100.00;101059.03;5550595;32;35115;-71
2022/10/31 04:11:50;;;;;;;;;;;;;;;10.86;100.00;101055.16;5536641;32;33873;-71
2022/10/31 04:14:58;;;;;;;;;;;;;;;10.82;100.00;101051.16;5537518;32;34520;-70
2022/10/31 04:18:05;;;;;;;;;;;;;;;10.97;100.00;101056.75;5550607;32;34618;-70
2022/10/31 04:21:12;;;;;;;;;;;;;;;11.00;100.00;101053.78;5550428;32;34643;-70
2022/10/31 04:24:20;;;;;;;;;;;;;;;10.92;100.00;101057.22;5550579;32;34695;-70
2022/10/31 04:27:27;;;;;;;;;;;;;;;10.93;100.00;101068.66;5536550;32;35507;-71
2022/10/31 04:30:33;;;;;;;;;;;;;;;10.92;100.00;101067.00;5550232;32;34898;-70
2022/10/31 04:33:41;;;;;;;;;;;;;;;10.80;100.00;101067.22;5550334;32;34455;-70
2022/10/31 04:36:49;;;;;;;;;;;;;;;10.88;100.00;101072.62;5550584;32;34936;-70
2022/10/31 04:39:56;;;;;;;;;;;;;;;10.93;100.00;101068.66;5550309;32;34574;-70
2022/10/31 04:43:04;;;;;;;;;;;;;;;10.99;100.00;101065.41;5550221;32;34954;-70
2022/10/31 04:46:12;;;;;;;;;;;;;;;11.00;100.00;101072.38;5550151;32;35190;-70
2022/10/31 04:49:20;;;;;;;;;;;;;;;11.06;100.00;101067.28;5550083;32;35196;-70
2022/10/31 04:52:26;;;;;;;;;;;;;;;11.00;100.00;101072.38;5550092;32;34534;-70
2022/10/31 04:55:33;;;;;;;;;;;;;;;11.17;100.00;101071.53;5550160;32;34522;-71
2022/10/31 04:58:41;;;;;;;;;;;;;;;11.28;100.00;101081.88;5549987;32;34460;-71
2022/10/31 05:01:48;;;;;;;;;;;;;;;11.31;100.00;101076.28;5549893;32;35069;-71
2022/10/31 05:04:56;;;;;;;;;;;;;;;11.21;100.00;101078.19;5550012;32;34658;-70
2022/10/31 05:08:03;;;;;;;;;;;;;;;11.14;100.00;101080.63;5549879;32;34458;-70
2022/10/31 05:11:10;;;;;;;;;;;;;;;11.07;100.00;101070.78;5523697;32;35371;-70
2022/10/31 05:14:19;;;;;;;;;;;;;;;11.11;100.00;101088.91;5549452;32;34406;-71
2022/10/31 05:17:32;;;;;;;;;;;;;;;11.07;100.00;101087.53;5551109;32;34464;-71
2022/10/31 05:20:41;;;;;;;;;;;;;;;11.02;100.00;101075.72;5552123;32;35125;-71
2022/10/31 05:23:49;;;;;;;;;;;;;;;10.99;100.00;101082.16;5537534;32;34902;-71
2022/10/31 05:26:58;;;;;;;;;;;;;;;11.06;100.00;101085.88;5552072;32;34914;-71
2022/10/31 05:30:06;;;;;;;;;;;;;;;10.98;100.00;101077.84;5551984;32;34409;-71
2022/10/31 05:33:14;;;;;;;;;;;;;;;11.08;100.00;101081.25;5552053;32;35216;-71
2022/10/31 05:36:24;;;;;;;;;;;;;;;11.15;100.00;101092.06;5552150;32;34982;-71
2022/10/31 05:39:32;;;;;;;;;;;;;;;11.23;100.00;101092.16;5552087;32;35127;-71
2022/10/31 05:42:40;;;;;;;;;;;;;;;11.19;100.00;101088.94;5538959;32;34825;-71
2022/10/31 05:45:53;;;;;;;;;;;;;;;11.21;100.00;101091.47;5538144;32;35429;-71
2022/10/31 05:49:02;;;;;;;;;;;;;;;11.28;100.00;101101.31;5538131;32;35921;-71
2022/10/31 05:52:14;;;;;;;;;;;;;;;11.04;100.00;101095.81;5552184;32;34360;-71
2022/10/31 05:55:20;;;;;;;;;;;;;;;11.02;100.00;101091.66;5551463;32;35096;-71
2022/10/31 05:58:29;;;;;;;;;;;;;;;11.09;100.00;101092.69;5551885;32;34508;-71
2022/10/31 06:01:35;;;;;;;;;;;;;;;11.11;100.00;101093.38;5551780;32;35067;-71
2022/10/31 06:04:47;;;;;;;;;;;;;;;11.17;100.00;101093.59;5539175;32;34542;-70
2022/10/31 06:07:55;;;;;;;;;;;;;;;10.99;100.00;101100.72;5551671;32;34487;-71
2022/10/31 06:11:04;;;;;;;;;;;;;;;11.00;100.00;101098.91;5537814;32;34977;-70
2022/10/31 06:14:11;;;;;;;;;;;;;;;11.13;100.00;101099.38;5551609;32;35152;-71
2022/10/31 06:17:20;;;;;;;;;;;;;;;11.15;100.00;101089.41;5551619;32;34576;-71
2022/10/31 06:20:28;;;;;;;;;;;;;;;10.93;100.00;101097.87;5551403;32;35093;-71
2022/10/31 06:23:35;;;;;;;;;;;;;;;11.09;100.00;101090.03;5551521;32;34848;-71
2022/10/31 06:26:44;;;;;;;;;;;;;;;11.14;100.00;101090.41;5525228;32;34715;-71
2022/10/31 06:29:54;;;;;;;;;;;;;;;11.26;100.00;101092.69;5537361;32;34953;-71
2022/10/31 06:33:02;;;;;;;;;;;;;;;11.24;100.00;101101.78;5551589;32;35152;-71
2022/10/31 06:36:09;;;;;;;;;;;;;;;11.38;100.00;101108.34;5551436;32;34533;-71
2022/10/31 06:39:16;;;;;;;;;;;;;;;11.43;100.00;101112.19;5551387;32;34648;-71
2022/10/31 06:42:21;;;;;;;;;;;;;;;11.50;100.00;101121.22;5537140;32;35340;-71
2022/10/31 06:45:28;;;;;;;;;;;;;;;11.52;100.00;101126.41;5551368;32;34501;-71
2022/10/31 06:48:44;;;;;;;;;;;;;;;11.50;100.00;101118.56;5551374;32;34268;-71
2022/10/31 06:51:52;;;;;;;;;;;;;;;11.63;100.00;101129.63;5551339;32;34552;-71
2022/10/31 06:54:58;;;;;;;;;;;;;;;11.59;100.00;101136.25;5537972;32;34933;-71
2022/10/31 06:58:09;;;;;;;;;;;;;;;11.60;100.00;101137.06;5536969;32;34293;-71
2022/10/31 07:01:16;;;;;;;;;;;;;;;11.59;100.00;101133.59;5551083;32;34615;-71
2022/10/31 07:04:24;;;;;;;;;;;;;;;11.76;100.00;101127.41;5536656;32;34809;-71
2022/10/31 07:07:31;;;;;;;;;;;;;;;11.68;100.00;101129.16;5551280;32;35104;-71
2022/10/31 07:10:37;;;;;;;;;;;;;;;12.00;100.00;101131.22;5537107;32;35357;-71
2022/10/31 07:13:47;;;;;;;;;;;;;;;12.18;100.00;101131.94;5551151;32;34591;-71
2022/10/31 07:16:56;;;;;;;;;;;;;;;12.19;100.00;101141.59;5551067;32;34083;-71
2022/10/31 07:20:06;;;;;;;;;;;;;;;11.96;100.00;101132.50;5550716;32;34583;-70
2022/10/31 07:23:13;;;;;;;;;;;;;;;11.74;100.00;101132.06;5550919;32;34500;-72
2022/10/31 07:26:20;;;;;;;;;;;;;;;12.02;100.00;101135.34;5550879;32;35251;-71
2022/10/31 07:29:24;;;;;;;;;;;;;;;11.88;100.00;101143.09;5537064;32;34615;-70
2022/10/31 07:32:40;;;;;;;;;;;;;;;11.83;100.00;101150.69;5537112;32;34584;-70
2022/10/31 07:35:46;;;;;;;;;;;;;;;11.72;100.00;101139.34;5550647;32;35187;-71
2022/10/31 07:38:53;;;;;;;;;;;;;;;11.70;100.00;101151.09;5537031;32;34398;-70
2022/10/31 07:41:59;;;;;;;;;;;;;;;11.77;100.00;101149.50;5550957;32;34802;-71
2022/10/31 07:45:08;;;;;;;;;;;;;;;11.87;100.00;101141.41;5551030;32;34615;-70
2022/10/31 07:48:20;;;;;;;;;;;;;;;12.08;100.00;101147.19;5550585;32;34292;-70
2022/10/31 07:51:29;;;;;;;;;;;;;;;12.16;100.00;101149.88;5536727;32;34415;-71
2022/10/31 07:54:37;;;;;;;;;;;;;;;12.20;100.00;101149.41;5550727;32;35094;-70
2022/10/31 07:57:55;;;;;;;;;;;;;;;12.04;100.00;101149.34;5550790;32;34864;-70
2022/10/31 08:01:04;;;;;;;;;;;;;;;12.15;100.00;101146.38;5550650;32;34537;-71
2022/10/31 08:04:15;;;;;;;;;;;;;;;12.14;100.00;101152.72;5550943;32;35273;-72
2022/10/31 08:07:24;;;;;;;;;;;;;;;12.07;100.00;101146.34;5536668;32;35435;-70
2022/10/31 08:10:31;;;;;;;;;;;;;;;11.97;100.00;101152.78;5537284;32;35346;-70
2022/10/31 08:13:38;;;;;;;;;;;;;;;11.98;100.00;101151.78;5550820;32;35169;-70
2022/10/31 08:16:45;;;;;;;;;;;;;;;12.02;100.00;101150.47;5550408;32;34527;-70
2022/10/31 08:19:54;;;;;;;;;;;;;;;12.12;100.00;101151.19;5550018;32;34623;-71
2022/10/31 08:23:04;;;;;;;;;;;;;;;12.04;100.00;101154.66;5550292;32;34462;-70
2022/10/31 08:26:09;;;;;;;;;;;;;;;12.06;100.00;101157.16;5550711;32;34480;-70
2022/10/31 08:29:15;;;;;;;;;;;;;;;11.98;100.00;101154.44;5536296;32;35703;-70
2022/10/31 08:32:21;;;;;;;;;;;;;;;12.20;100.00;101152.06;5550214;32;35010;-70
2022/10/31 08:35:32;;;;;;;;;;;;;;;11.92;100.00;101155.06;5550039;32;35249;-70
2022/10/31 08:38:43;;;;;;;;;;;;;;;12.14;100.00;101152.72;5535886;32;35592;-70
2022/10/31 08:41:50;;;;;;;;;;;;;;;12.31;100.00;101155.44;5549839;32;35128;-70
2022/10/31 08:44:59;;;;;;;;;;;;;;;12.36;100.00;101158.44;5550003;32;34476;-70
2022/10/31 08:48:09;;;;;;;;;;;;;;;12.61;100.00;101153.06;5549945;32;34431;-70
2022/10/31 08:51:15;;;;;;;;;;;;;;;12.64;100.00;101150.06;5548863;32;34525;-70
2022/10/31 08:54:22;;;;;;;;;;;;;;;12.69;100.00;101156.72;5536263;32;32970;-69
2022/10/31 08:57:33;;;;;;;;;;;;;;;12.69;100.00;101152.22;5535535;32;35441;-70
2022/10/31 09:00:40;;;;;;;;;;;;;;;12.42;100.00;101161.31;5536052;32;35824;-70
2022/10/31 09:03:45;;;;;;;;;;;;;;;12.17;100.00;101159.53;5549683;32;35196;-70
2022/10/31 09:06:50;;;;;;;;;;;;;;;12.30;100.00;101167.06;5549708;32;34510;-70
2022/10/31 09:10:14;;;;;;;;;;;;;;;12.54;100.00;101168.00;5549494;32;34530;-70
2022/10/31 09:13:20;;;;;;;;;;;;;;;12.59;100.00;101173.66;5549509;32;34487;-70
2022/10/31 09:16:34;;;;;;;;;;;;;;;12.57;100.00;101169.53;5535552;32;33937;-70
2022/10/31 09:19:41;;;;;;;;;;;;;;;12.45;100.00;101165.47;5549425;32;35033;-70
2022/10/31 09:22:47;;;;;;;;;;;;;;;12.49;100.00;101167.66;5549105;32;34428;-70
2022/10/31 09:25:54;;;;;;;;;;;;;;;12.66;100.00;101168.53;5535921;32;34561;-70
2022/10/31 09:29:02;;;;;;;;;;;;;;;12.58;100.00;101173.84;5549096;32;34467;-70
2022/10/31 09:32:10;;;;;;;;;;;;;;;12.54;100.00;101170.66;5535374;32;34432;-70
2022/10/31 09:35:16;;;;;;;;;;;;;;;12.70;100.00;101169.03;5548811;32;35322;-70
2022/10/31 09:38:29;;;;;;;;;;;;;;;12.75;100.00;101174.72;5548978;32;34595;-70
2022/10/31 09:41:56;;;;;;;;;;;;;;;12.61;100.00;101168.19;5548946;32;34531;-70
2022/10/31 09:45:22;;;;;;;;;;;;;;;12.25;100.00;101178.19;5548607;32;34291;-70
2022/10/31 09:48:34;;;;;;;;;;;;;;;12.40;100.00;101173.94;5534587;32;34829;-70
2022/10/31 09:51:44;;;;;;;;;;;;;;;12.65;100.00;101172.19;5534534;32;33273;-70
2022/10/31 09:54:59;;;;;;;;;;;;;;;12.42;100.00;101179.09;5548650;32;35263;-70
2022/10/31 09:58:08;;;;;;;;;;;;;;;12.56;100.00;101171.34;5535518;32;34578;-70
2022/10/31 10:01:19;;;;;;;;;;;;;;;12.58;100.00;101171.19;5535347;32;35093;-70
2022/10/31 10:04:30;;;;;;;;;;;;;;;12.74;100.00;101175.72;5551302;32;35032;-70
2022/10/31 10:07:42;;;;;;;;;;;;;;;12.70;100.00;101166.38;5551428;32;35383;-70
2022/10/31 10:11:03;;;;;;;;;;;;;;;12.85;100.00;101170.94;5551414;32;34582;-70
2022/10/31 10:14:22;;;;;;;;;;;;;;;12.92;100.00;101168.44;5537452;32;33134;-70
2022/10/31 10:17:31;;;;;;;;;;;;;;;12.93;100.00;101165.59;5537744;32;34427;-70
2022/10/31 10:20:42;;;;;;;;;;;;;;;12.95;100.00;101162.78;5551310;32;34495;-70
2022/10/31 10:23:55;;;;;;;;;;;;;;;12.93;100.00;101162.94;5537538;32;35388;-70
2022/10/31 10:27:06;;;;;;;;;;;;;;;12.57;100.00;101165.03;5538310;32;35158;-70
2022/10/31 10:30:18;;;;;;;;;;;;;;;12.48;100.00;101165.16;5536883;32;35285;-70
2022/10/31 10:33:31;;;;;;;;;;;;;;;12.63;100.00;101160.91;5551202;32;34907;-70
2022/10/31 10:36:44;;;;;;;;;;;;;;;12.65;100.00;101150.91;5537995;32;34518;-70
2022/10/31 10:39:53;;;;;;;;;;;;;;;12.91;100.00;101145.47;5537389;32;35265;-70
2022/10/31 10:50:01;;;;;;;;;;;;;;;13.26;100.00;101147.03;5551250;32;35232;-70
2022/10/31 10:53:21;;;;;;;;;;;;;;;12.66;100.00;101149.91;5537272;32;34879;-70
2022/10/31 10:56:36;;;;;;;;;;;;;;;12.99;100.00;101148.97;5551295;32;34886;-70
2022/10/31 10:59:41;;;;;;;;;;;;;;;13.06;100.00;101155.31;5551060;32;34508;-70
2022/10/31 11:02:47;;;;;;;;;;;;;;;12.97;100.00;101156.28;5551321;32;33556;-70
2022/10/31 11:06:01;;;;;;;;;;;;;;;12.92;100.00;101145.31;5551178;32;34636;-71
2022/10/31 11:09:10;;;;;;;;;;;;;;;12.86;100.00;101142.47;5551045;32;34599;-71
2022/10/31 11:12:29;;;;;;;;;;;;;;;12.95;100.00;101144.97;5537713;32;35173;-71
2022/10/31 11:15:39;;;;;;;;;;;;;;;12.94;100.00;101137.97;5550153;32;34478;-70
2022/10/31 11:18:47;;;;;;;;;;;;;;;12.54;100.00;101143.22;5551064;32;35099;-70
2022/10/31 11:21:54;;;;;;;;;;;;;;;12.57;100.00;101135.75;5536813;32;34563;-71
2022/10/31 11:24:58;;;;;;;;;;;;;;;12.79;100.00;101144.09;5550931;32;34405;-70
2022/10/31 11:28:09;;;;;;;;;;;;;;;12.87;100.00;101136.16;5537386;32;34283;-69
2022/10/31 11:31:15;;;;;;;;;;;;;;;12.90;100.00;101135.81;5550657;32;34489;-69
2022/10/31 11:34:27;;;;;;;;;;;;;;;12.95;100.00;101134.31;5550743;32;34610;-70
2022/10/31 11:37:35;;;;;;;;;;;;;;;13.07;100.00;101132.16;5537763;32;34873;-69
2022/10/31 11:40:51;;;;;;;;;;;;;;;12.63;100.00;101127.09;5550785;32;35157;-70
2022/10/31 11:43:57;;;;;;;;;;;;;;;12.31;100.00;101119.03;5551235;32;35098;-70
2022/10/31 11:47:13;;;;;;;;;;;;;;;12.57;100.00;101114.47;5550683;32;35162;-68
2022/10/31 11:50:20;;;;;;;;;;;;;;;12.82;100.00;101123.34;5550815;32;35122;-69
2022/10/31 11:53:30;;;;;;;;;;;;;;;12.96;100.00;101124.50;5537659;32;34904;-71
2022/10/31 11:56:40;;;;;;;;;;;;;;;12.99;100.00;101121.50;5550606;32;34690;-70
2022/10/31 11:59:50;;;;;;;;;;;;;;;12.84;100.00;101117.81;5549730;32;35047;-70
2022/10/31 12:03:13;;;;;;;;;;;;;;;12.91;100.00;101126.84;5536927;32;34979;-70
2022/10/31 12:06:32;;;;;;;;;;;;;;;13.10;100.00;101128.34;5528412;32;35093;-70
2022/10/31 12:09:38;;;;;;;;;;;;;;;13.24;100.00;101123.22;5550603;32;34591;-70
2022/10/31 12:12:45;;;;;;;;;;;;;;;13.18;100.00;101123.88;5550461;32;34584;-70
2022/10/31 12:15:53;;;;;;;;;;;;;;;12.92;100.00;101121.34;5550461;32;34497;-70
2022/10/31 12:19:10;;;;;;;;;;;;;;;13.01;100.00;101125.69;5517916;32;808935;-70
2022/10/31 12:22:24;;;;;;;;;;;;;;;13.11;100.00;101122.03;5545663;32;34622;-70
2022/10/31 12:25:39;;;;;;;;;;;;;;;13.18;100.00;101123.03;5535964;32;34691;-70
2022/10/31 12:28:51;;;;;;;;;;;;;;;12.97;100.00;101123.50;5536298;32;35264;-70
2022/10/31 12:32:10;;;;;;;;;;;;;;;12.78;100.00;101127.28;5550284;32;34447;-70
2022/10/31 12:35:30;;;;;;;;;;;;;;;12.81;100.00;101123.50;5550250;32;34989;-70
2022/10/31 12:39:01;;;;;;;;;;;;;;;12.86;100.00;101131.81;5550021;32;35159;-70
2022/10/31 12:42:29;;;;;;;;;;;;;;;12.66;100.00;101120.63;5550240;32;34143;-70
2022/10/31 12:45:53;;;;;;;;;;;;;;;12.66;100.00;101119.78;5550126;32;34621;-69
2022/10/31 12:49:11;;;;;;;;;;;;;;;12.83;100.00;101113.50;5550020;32;35097;-70
2022/10/31 12:52:19;;;;;;;;;;;;;;;12.80;100.00;101119.16;5536087;32;35442;-69
2022/10/31 12:55:28;;;;;;;;;;;;;;;12.85;100.00;101116.81;5549892;32;34663;-69
2022/10/31 12:58:43;;;;;;;;;;;;;;;12.58;100.00;101110.81;5549854;32;35259;-70
2022/10/31 13:01:53;;;;;;;;;;;;;;;12.80;100.00;101120.00;5536253;32;34546;-70
2022/10/31 13:04:59;;;;;;;;;;;;;;;12.70;100.00;101118.47;5535820;32;34368;-70
2022/10/31 13:08:08;;;;;;;;;;;;;;;12.55;100.00;101108.44;5549704;32;34687;-69
2022/10/31 13:11:16;;;;;;;;;;;;;;;12.25;100.00;101113.53;5549514;32;34970;-70
2022/10/31 13:14:24;;;;;;;;;;;;;;;12.28;100.00;101110.53;5549425;32;34521;-70
2022/10/31 13:17:43;;;;;;;;;;;;;;;12.35;100.00;101106.22;5549721;32;35265;-69
2022/10/31 13:20:50;;;;;;;;;;;;;;;12.22;100.00;101108.50;5549225;32;35103;-69
2022/10/31 13:24:01;;;;;;;;;;;;;;;12.26;100.00;101102.72;5549369;32;34498;-69
2022/10/31 13:27:13;;;;;;;;;;;;;;;12.20;100.00;101106.00;5549536;32;34581;-69
2022/10/31 13:30:20;;;;;;;;;;;;;;;12.26;100.00;101113.34;5549152;32;35084;-69
2022/10/31 13:33:52;;;;;;;;;;;;;;;12.44;100.00;101102.63;5535474;32;32965;-69
2022/10/31 13:37:18;;;;;;;;;;;;;;;12.41;100.00;101110.91;5548601;32;34457;-69
2022/10/31 13:40:33;;;;;;;;;;;;;;;12.19;100.00;101107.84;5551695;32;34894;-69
2022/10/31 13:43:47;;;;;;;;;;;;;;;12.06;100.00;101107.44;5551738;32;34496;-68
2022/10/31 13:46:53;;;;;;;;;;;;;;;12.05;100.00;101102.31;5552127;32;35107;-69
2022/10/31 13:50:19;;;;;;;;;;;;;;;12.02;100.00;101103.44;5537650;32;34734;-69
2022/10/31 13:53:37;;;;;;;;;;;;;;;12.15;100.00;101109.16;5537417;32;34448;-69
2022/10/31 13:56:48;;;;;;;;;;;;;;;12.17;100.00;101109.00;5538059;32;35376;-70
2022/10/31 13:59:54;;;;;;;;;;;;;;;12.21;100.00;101113.00;5551363;32;34536;-70
2022/10/31 14:03:02;;;;;;;;;;;;;;;12.23;100.00;101099.53;5551333;32;34614;-70
2022/10/31 14:06:12;;;;;;;;;;;;;;;12.21;100.00;101099.69;5551428;32;34713;-70
2022/10/31 14:09:20;;;;;;;;;;;;;;;12.21;100.00;101107.69;5551570;32;34474;-69
2022/10/31 14:12:32;;;;;;;;;;;;;;;12.28;100.00;101099.91;5538653;32;34935;-69
2022/10/31 14:15:38;;;;;;;;;;;;;;;12.23;100.00;101102.22;5551326;32;35147;-71
2022/10/31 14:18:50;;;;;;;;;;;;;;;12.01;100.00;101103.59;5538439;32;34569;-69
2022/10/31 14:21:59;;;;;;;;;;;;;;;12.06;100.00;101101.28;5537337;32;34731;-70
2022/10/31 14:25:24;;;;;;;;;;;;;;;12.10;100.00;101100.81;5537132;32;35043;-69
2022/10/31 14:28:33;;;;;;;;;;;;;;;12.06;100.00;101110.09;5551621;32;35108;-69
2022/10/31 14:31:46;;;;;;;;;;;;;;;12.11;100.00;101101.66;5551158;32;35036;-69
2022/10/31 14:34:59;;;;;;;;;;;;;;;12.05;100.00;101099.66;5551309;32;34475;-72
2022/10/31 14:38:12;;;;;;;;;;;;;;;12.09;100.00;101103.66;5551470;32;34497;-70
2022/10/31 14:41:42;;;;;;;;;;;;;;;12.00;100.00;101094.81;5525016;32;35934;-69
2022/10/31 14:45:15;;;;;;;;;;;;;;;11.98;100.00;101090.63;5537607;32;34196;-69
2022/10/31 14:48:20;;;;;;;;;;;;;;;11.93;100.00;101098.25;5549399;32;35028;-69
2022/10/31 14:51:32;;;;;;;;;;;;;;;11.82;100.00;101090.53;5524026;32;32906;-69
2022/10/31 14:54:40;;;;;;;;;;;;;;;11.80;100.00;101104.00;5551235;32;34481;-69
2022/10/31 14:57:52;;;;;;;;;;;;;;;11.86;100.00;101097.22;5551263;32;35063;-69
2022/10/31 15:00:59;;;;;;;;;;;;;;;11.84;100.00;101101.87;5537195;32;34509;-69
2022/10/31 15:04:15;;;;;;;;;;;;;;;11.75;100.00;101107.16;5551275;32;34894;-69
2022/10/31 15:07:27;;;;;;;;;;;;;;;11.84;100.00;101108.03;5537521;32;35219;-69
2022/10/31 15:10:45;;;;;;;;;;;;;;;11.77;100.00;101106.97;5551104;32;34409;-69
2022/10/31 15:13:52;;;;;;;;;;;;;;;11.78;100.00;101103.31;5551145;32;35182;-69
2022/10/31 15:17:02;;;;;;;;;;;;;;;11.71;100.00;101102.28;5550972;32;34469;-70
2022/10/31 15:20:12;;;;;;;;;;;;;;;11.56;100.00;101098.53;5538026;32;35200;-69
2022/10/31 15:23:27;;;;;;;;;;;;;;;11.58;100.00;101099.19;5550657;32;35135;-70
2022/10/31 15:26:35;;;;;;;;;;;;;;;11.56;100.00;101099.34;5551335;32;34335;-70
2022/10/31 15:29:53;;;;;;;;;;;;;;;11.74;100.00;101096.66;5551007;32;35202;-70
2022/10/31 15:33:00;;;;;;;;;;;;;;;11.68;100.00;101103.41;5550871;32;34545;-70
2022/10/31 15:36:22;;;;;;;;;;;;;;;11.58;100.00;101094.69;5550958;32;35227;-69
2022/10/31 15:39:35;;;;;;;;;;;;;;;11.60;100.00;101103.38;5525013;32;34552;-70
2022/10/31 15:42:47;;;;;;;;;;;;;;;11.73;100.00;101100.31;5525095;32;34633;-70
2022/10/31 15:45:52;;;;;;;;;;;;;;;11.66;100.00;101104.56;5550595;32;34420;-70
2022/10/31 15:48:58;;;;;;;;;;;;;;;11.61;100.00;101102.38;5550725;32;35095;-70
2022/10/31 15:52:12;;;;;;;;;;;;;;;11.61;100.00;101105.03;5536907;32;35624;-70
2022/10/31 15:55:22;;;;;;;;;;;;;;;11.64;100.00;101109.19;5550648;32;35096;-70
2022/10/31 15:58:28;;;;;;;;;;;;;;;11.58;100.00;101112.47;5537112;32;35082;-70
2022/10/31 16:01:38;;;;;;;;;;;;;;;11.62;100.00;101109.34;5549960;32;34137;-70
2022/10/31 16:04:56;;;;;;;;;;;;;;;11.53;100.00;101118.25;5550621;32;35087;-70
2022/10/31 16:08:03;;;;;;;;;;;;;;;11.62;100.00;101119.97;5536703;32;33836;-69
2022/10/31 16:11:13;;;;;;;;;;;;;;;11.50;100.00;101118.56;5550510;32;35107;-69